Terminal Aerodrome Forecast
Issued by NWS Cleveland, OH

Home | Current Version | Previous Version | Graphics & Text | Print | Product List | Glossary On
Versions: 1 2 3 4 5 6 7 8 9 10 11 12 13 14 15 16 17 18 19
000
FTUS41 KCLE 272100 AAA
TAFCAK
TAF AMD
KCAK 272129Z 2721/2818 33013KT 3SM -SN OVC020
      TEMPO 2721/2724 2SM -SN BKN018
     FM280000 34010KT 6SM -SN OVC030
     FM280400 34010KT P6SM OVC035
     FM281500 33012KT P6SM SCT035=

USA.gov is the U.S. government's official web portal to all federal, state and local government web resources and services.